Portada
METAR-TAF:

METAR-TAF

Aeropuertos :

Mendoza, Argentina

Aeropuerto Internacional Gobernador Francisco Gabrielli

latitud: 32-50S, longitud: 068-47W, altitud: 705 m

Observación

El informe se hizo hace 52 minutos, a las 10:00 UTC
Viento calma
Temperatura 10°C
Humedad 87%
Presión 1018 hPa
Visibilidad 10 km o más
sin nubes por debajo de 1500 m y sin presencia de cumulonimbus.

METAR: SAME 301000Z 00000KT CAVOK 10/08 Q1018

Hora: 07:52 (10:52 UTC)

Pronóstico

El informe se hizo hace 5 horas y 52 minutos, a las 05:00 UTC
Pronóstico válido del 30 a las 06 UTC al 01 a las 06 UTC
Viento 3 kt con dirección variable
Visibilidad 10 km o más
sin nubes por debajo de 1500 m y sin presencia de cumulonimbus.
Evolucionando progresivamente
del 30 a las 11 UTC al 30 a las 14 UTC
Viento 10 kt del noreste

TAF: SAME 300500Z 3006/0106 VRB03KT CAVOK TX26/3020Z TN11/3010Z BECMG 3011/3014 05010KT

Observaciones y pronósticos meteorológicos de más de 4000 aeropuertos (mensajes METAR y TAF).

Los puntos amarillos y rojos representan las estaciones disponibles.

Ponga el ratón en el punto deseado para ver el nombre de la estación.

Haga clic para ver las observaciones y los pronósticos meteorológicos.

Para cambiar el mapa : haga clic en los botones verdes con una cruz de color negro para hacer un zoom, en el botón verde con un guión para alejar o en las flechas verdes para mapas adyacentes.


METAR-TAF: